Wynantskill, New York
Current Conditions -  °F | °C
As of 12:04 PM on Tuesday 21 Oct 2014 (Local Time) from KALB Reporting Station
Light Rain Light Rain  
Wind Chill: 51°   Ceiling: 3500
Heat Index: 51°   Visibility: 4mi
Dew Point: 49°   Wind: 3mph
Humidity: 92%   Direction: 120°ESE
Pressure: 29.94"   Gusts: NA
Location:  42.69°N, 73.64°W
Report Text: KALB 211604Z 12003KT 4SM -RA BR FEW004 SCT008 OVC035 11/09 A2994 RMK AO2 VIS NW-NE 2 1/2 P0001 T01060094
Loading
Personal Weather Stations






























Interactive Weather Map
Tropical Storm Tracking
New forecast layout! Learn more

10-Day Weather Forecast

Advertisements
Track Severe Weather on mobile